sensor_id;sensor_type;location;lat;lon;timestamp;temperature;humidity
10386;DHT22;34307;51.332;12.334;2023-07-22T00:00:50;14.10;99.90
10386;DHT22;34307;51.332;12.334;2023-07-22T00:03:19;14.10;99.90
10386;DHT22;34307;51.332;12.334;2023-07-22T00:06:03;14.10;99.90
10386;DHT22;34307;51.332;12.334;2023-07-22T00:08:34;14.10;99.90
10386;DHT22;34307;51.332;12.334;2023-07-22T00:11:04;14.10;99.90
10386;DHT22;34307;51.332;12.334;2023-07-22T00:13:33;14.10;99.90
10386;DHT22;34307;51.332;12.334;2023-07-22T00:16:02;14.00;99.90
10386;DHT22;34307;51.332;12.334;2023-07-22T00:18:30;13.90;99.90
10386;DHT22;34307;51.332;12.334;2023-07-22T00:20:59;13.90;99.90
10386;DHT22;34307;51.332;12.334;2023-07-22T00:23:28;13.90;99.90
10386;DHT22;34307;51.332;12.334;2023-07-22T00:25:57;13.90;99.90
10386;DHT22;34307;51.332;12.334;2023-07-22T00:28:25;13.80;99.90
10386;DHT22;34307;51.332;12.334;2023-07-22T00:30:53;13.80;99.90
10386;DHT22;34307;51.332;12.334;2023-07-22T00:33:24;13.80;99.90
10386;DHT22;34307;51.332;12.334;2023-07-22T00:35:53;13.90;99.90
10386;DHT22;34307;51.332;12.334;2023-07-22T00:38:22;13.90;99.90
10386;DHT22;34307;51.332;12.334;2023-07-22T00:40:55;13.80;99.90
10386;DHT22;34307;51.332;12.334;2023-07-22T00:43:23;13.70;99.90
10386;DHT22;34307;51.332;12.334;2023-07-22T00:45:52;13.70;99.90
10386;DHT22;34307;51.332;12.334;2023-07-22T00:48:21;13.70;99.90
10386;DHT22;34307;51.332;12.334;2023-07-22T00:50:51;13.70;99.90
10386;DHT22;34307;51.332;12.334;2023-07-22T00:53:20;13.70;99.90
10386;DHT22;34307;51.332;12.334;2023-07-22T00:55:48;13.70;99.90
10386;DHT22;34307;51.332;12.334;2023-07-22T00:58:17;13.70;99.90
10386;DHT22;34307;51.332;12.334;2023-07-22T01:00:45;13.70;99.90
10386;DHT22;34307;51.332;12.334;2023-07-22T01:03:16;13.70;99.90
10386;DHT22;34307;51.332;12.334;2023-07-22T01:05:49;13.60;99.90
10386;DHT22;34307;51.332;12.334;2023-07-22T01:08:19;13.60;99.90
10386;DHT22;34307;51.332;12.334;2023-07-22T01:10:52;13.50;99.90
10386;DHT22;34307;51.332;12.334;2023-07-22T01:13:22;13.40;99.90
10386;DHT22;34307;51.332;12.334;2023-07-22T01:15:52;13.50;99.90
10386;DHT22;34307;51.332;12.334;2023-07-22T01:18:21;13.50;99.90
10386;DHT22;34307;51.332;12.334;2023-07-22T01:20:49;13.50;99.90
10386;DHT22;34307;51.332;12.334;2023-07-22T01:23:22;13.50;99.90
10386;DHT22;34307;51.332;12.334;2023-07-22T01:25:53;13.50;99.90
10386;DHT22;34307;51.332;12.334;2023-07-22T01:28:24;13.50;99.90
10386;DHT22;34307;51.332;12.334;2023-07-22T01:30:52;13.50;99.90
10386;DHT22;34307;51.332;12.334;2023-07-22T01:33:21;13.60;99.90
10386;DHT22;34307;51.332;12.334;2023-07-22T01:35:49;13.60;99.90
10386;DHT22;34307;51.332;12.334;2023-07-22T01:38:20;13.60;99.90
10386;DHT22;34307;51.332;12.334;2023-07-22T01:40:49;13.60;99.90
10386;DHT22;34307;51.332;12.334;2023-07-22T01:43:17;13.60;99.90
10386;DHT22;34307;51.332;12.334;2023-07-22T01:45:46;13.60;99.90
10386;DHT22;34307;51.332;12.334;2023-07-22T01:48:14;13.60;99.90
10386;DHT22;34307;51.332;12.334;2023-07-22T01:50:44;13.60;99.90
10386;DHT22;34307;51.332;12.334;2023-07-22T01:53:14;13.70;99.90
10386;DHT22;34307;51.332;12.334;2023-07-22T01:55:43;13.60;99.90
10386;DHT22;34307;51.332;12.334;2023-07-22T01:58:13;13.60;99.90
10386;DHT22;34307;51.332;12.334;2023-07-22T02:00:42;13.60;99.90
10386;DHT22;34307;51.332;12.334;2023-07-22T02:03:10;13.60;99.90
10386;DHT22;34307;51.332;12.334;2023-07-22T02:05:38;13.50;99.90
10386;DHT22;34307;51.332;12.334;2023-07-22T02:08:06;13.40;99.90
10386;DHT22;34307;51.332;12.334;2023-07-22T02:10:34;13.50;99.90
10386;DHT22;34307;51.332;12.334;2023-07-22T02:13:04;13.40;99.90
10386;DHT22;34307;51.332;12.334;2023-07-22T02:15:32;13.40;99.90
10386;DHT22;34307;51.332;12.334;2023-07-22T02:18:01;13.40;99.90
10386;DHT22;34307;51.332;12.334;2023-07-22T02:20:32;13.40;99.90
10386;DHT22;34307;51.332;12.334;2023-07-22T02:23:00;13.40;99.90
10386;DHT22;34307;51.332;12.334;2023-07-22T02:25:30;13.50;99.90
10386;DHT22;34307;51.332;12.334;2023-07-22T02:27:58;13.50;99.90
10386;DHT22;34307;51.332;12.334;2023-07-22T02:30:28;13.50;99.90
10386;DHT22;34307;51.332;12.334;2023-07-22T02:32:56;13.50;99.90
10386;DHT22;34307;51.332;12.334;2023-07-22T02:35:24;13.50;99.90
10386;DHT22;34307;51.332;12.334;2023-07-22T02:37:53;13.50;99.90
10386;DHT22;34307;51.332;12.334;2023-07-22T02:40:21;13.40;99.90
10386;DHT22;34307;51.332;12.334;2023-07-22T02:42:49;13.50;99.90
10386;DHT22;34307;51.332;12.334;2023-07-22T02:45:17;13.50;99.90
10386;DHT22;34307;51.332;12.334;2023-07-22T02:47:46;13.50;99.90
10386;DHT22;34307;51.332;12.334;2023-07-22T02:50:16;13.50;99.90
10386;DHT22;34307;51.332;12.334;2023-07-22T02:52:46;13.60;99.90
10386;DHT22;34307;51.332;12.334;2023-07-22T02:55:16;13.50;99.90
10386;DHT22;34307;51.332;12.334;2023-07-22T02:57:46;13.40;99.90
10386;DHT22;34307;51.332;12.334;2023-07-22T03:00:16;13.50;99.90
10386;DHT22;34307;51.332;12.334;2023-07-22T03:02:52;13.50;99.90
10386;DHT22;34307;51.332;12.334;2023-07-22T03:05:21;13.60;99.90
10386;DHT22;34307;51.332;12.334;2023-07-22T03:07:50;13.60;99.90
10386;DHT22;34307;51.332;12.334;2023-07-22T03:10:20;13.60;99.90
10386;DHT22;34307;51.332;12.334;2023-07-22T03:12:53;13.60;99.90
10386;DHT22;34307;51.332;12.334;2023-07-22T03:15:22;13.50;99.90
10386;DHT22;34307;51.332;12.334;2023-07-22T03:17:54;13.50;99.90
10386;DHT22;34307;51.332;12.334;2023-07-22T03:20:25;13.40;99.90
10386;DHT22;34307;51.332;12.334;2023-07-22T03:22:53;13.50;99.90
10386;DHT22;34307;51.332;12.334;2023-07-22T03:25:22;13.40;99.90
10386;DHT22;34307;51.332;12.334;2023-07-22T03:27:52;13.40;99.90
10386;DHT22;34307;51.332;12.334;2023-07-22T03:30:22;13.40;99.90
10386;DHT22;34307;51.332;12.334;2023-07-22T03:32:51;13.40;99.90
10386;DHT22;34307;51.332;12.334;2023-07-22T03:35:21;13.50;99.90
10386;DHT22;34307;51.332;12.334;2023-07-22T03:37:49;13.50;99.90
10386;DHT22;34307;51.332;12.334;2023-07-22T03:40:19;13.50;99.90
10386;DHT22;34307;51.332;12.334;2023-07-22T03:42:50;13.50;99.90
10386;DHT22;34307;51.332;12.334;2023-07-22T03:45:20;13.50;99.90
10386;DHT22;34307;51.332;12.334;2023-07-22T03:47:51;13.50;99.90
10386;DHT22;34307;51.332;12.334;2023-07-22T03:50:22;13.40;99.90
10386;DHT22;34307;51.332;12.334;2023-07-22T03:52:51;13.40;99.90
10386;DHT22;34307;51.332;12.334;2023-07-22T03:55:19;13.30;99.90
10386;DHT22;34307;51.332;12.334;2023-07-22T03:57:48;13.30;99.90
10386;DHT22;34307;51.332;12.334;2023-07-22T04:00:17;13.20;99.90
10386;DHT22;34307;51.332;12.334;2023-07-22T04:02:45;13.20;99.90
10386;DHT22;34307;51.332;12.334;2023-07-22T04:05:13;13.20;99.90
10386;DHT22;34307;51.332;12.334;2023-07-22T04:07:48;13.20;99.90
10386;DHT22;34307;51.332;12.334;2023-07-22T04:10:16;13.10;99.90
10386;DHT22;34307;51.332;12.334;2023-07-22T04:12:44;13.10;99.90
10386;DHT22;34307;51.332;12.334;2023-07-22T04:15:13;13.10;99.90
10386;DHT22;34307;51.332;12.334;2023-07-22T04:17:42;13.10;99.90
10386;DHT22;34307;51.332;12.334;2023-07-22T04:20:11;13.10;99.90
10386;DHT22;34307;51.332;12.334;2023-07-22T04:22:40;13.10;99.90
10386;DHT22;34307;51.332;12.334;2023-07-22T04:25:10;13.10;99.90
10386;DHT22;34307;51.332;12.334;2023-07-22T04:27:39;13.10;99.90
10386;DHT22;34307;51.332;12.334;2023-07-22T04:30:15;13.20;99.90
10386;DHT22;34307;51.332;12.334;2023-07-22T04:32:48;13.20;99.90
10386;DHT22;34307;51.332;12.334;2023-07-22T04:35:16;13.20;99.90
10386;DHT22;34307;51.332;12.334;2023-07-22T04:37:45;13.30;99.90
10386;DHT22;34307;51.332;12.334;2023-07-22T04:40:20;13.30;99.90
10386;DHT22;34307;51.332;12.334;2023-07-22T04:42:48;13.40;99.90
10386;DHT22;34307;51.332;12.334;2023-07-22T04:45:16;13.40;99.90
10386;DHT22;34307;51.332;12.334;2023-07-22T04:47:46;13.50;99.90
10386;DHT22;34307;51.332;12.334;2023-07-22T04:50:16;13.60;99.90
10386;DHT22;34307;51.332;12.334;2023-07-22T04:52:47;13.60;99.90
10386;DHT22;34307;51.332;12.334;2023-07-22T04:55:19;13.60;99.90
10386;DHT22;34307;51.332;12.334;2023-07-22T04:57:49;13.70;99.90
10386;DHT22;34307;51.332;12.334;2023-07-22T05:00:18;13.70;99.90
10386;DHT22;34307;51.332;12.334;2023-07-22T05:02:46;13.70;99.90
10386;DHT22;34307;51.332;12.334;2023-07-22T05:05:16;13.80;99.90
10386;DHT22;34307;51.332;12.334;2023-07-22T05:07:45;13.80;99.90
10386;DHT22;34307;51.332;12.334;2023-07-22T05:10:17;13.80;99.90
10386;DHT22;34307;51.332;12.334;2023-07-22T05:12:46;13.90;99.90
10386;DHT22;34307;51.332;12.334;2023-07-22T05:15:14;13.90;99.90
10386;DHT22;34307;51.332;12.334;2023-07-22T05:17:42;13.90;99.90
10386;DHT22;34307;51.332;12.334;2023-07-22T05:20:11;14.00;99.90
10386;DHT22;34307;51.332;12.334;2023-07-22T05:22:41;14.00;99.90
10386;DHT22;34307;51.332;12.334;2023-07-22T05:25:19;14.10;99.90
10386;DHT22;34307;51.332;12.334;2023-07-22T05:27:49;14.10;99.90
10386;DHT22;34307;51.332;12.334;2023-07-22T05:30:17;14.20;99.90
10386;DHT22;34307;51.332;12.334;2023-07-22T05:33:01;14.30;99.90
10386;DHT22;34307;51.332;12.334;2023-07-22T05:35:30;14.30;99.90
10386;DHT22;34307;51.332;12.334;2023-07-22T05:37:59;14.40;99.90
10386;DHT22;34307;51.332;12.334;2023-07-22T05:40:33;14.40;99.90
10386;DHT22;34307;51.332;12.334;2023-07-22T05:43:03;14.50;99.90
10386;DHT22;34307;51.332;12.334;2023-07-22T05:45:32;14.40;99.90
10386;DHT22;34307;51.332;12.334;2023-07-22T05:48:00;14.50;99.90
10386;DHT22;34307;51.332;12.334;2023-07-22T05:50:29;14.50;99.90
10386;DHT22;34307;51.332;12.334;2023-07-22T05:52:57;14.70;99.90
10386;DHT22;34307;51.332;12.334;2023-07-22T05:55:26;14.80;99.90
10386;DHT22;34307;51.332;12.334;2023-07-22T05:57:59;14.80;99.90
10386;DHT22;34307;51.332;12.334;2023-07-22T06:00:35;14.80;99.90
10386;DHT22;34307;51.332;12.334;2023-07-22T06:03:03;14.90;99.90
10386;DHT22;34307;51.332;12.334;2023-07-22T06:05:33;14.90;99.90
10386;DHT22;34307;51.332;12.334;2023-07-22T06:08:01;15.00;99.90
10386;DHT22;34307;51.332;12.334;2023-07-22T06:10:32;15.00;99.90
10386;DHT22;34307;51.332;12.334;2023-07-22T06:13:06;15.20;99.90
10386;DHT22;34307;51.332;12.334;2023-07-22T06:15:35;15.10;99.90
10386;DHT22;34307;51.332;12.334;2023-07-22T06:18:03;15.20;99.90
10386;DHT22;34307;51.332;12.334;2023-07-22T06:20:34;15.30;99.90
10386;DHT22;34307;51.332;12.334;2023-07-22T06:23:03;15.40;99.90
10386;DHT22;34307;51.332;12.334;2023-07-22T06:25:32;15.50;99.90
10386;DHT22;34307;51.332;12.334;2023-07-22T06:28:02;15.50;99.90
10386;DHT22;34307;51.332;12.334;2023-07-22T06:30:35;15.60;99.90
10386;DHT22;34307;51.332;12.334;2023-07-22T06:33:06;15.60;99.90
10386;DHT22;34307;51.332;12.334;2023-07-22T06:35:35;15.60;99.90
10386;DHT22;34307;51.332;12.334;2023-07-22T06:38:04;15.70;99.90
10386;DHT22;34307;51.332;12.334;2023-07-22T06:40:33;15.80;99.90
10386;DHT22;34307;51.332;12.334;2023-07-22T06:43:01;15.90;99.90
10386;DHT22;34307;51.332;12.334;2023-07-22T06:45:34;16.00;99.90
10386;DHT22;34307;51.332;12.334;2023-07-22T06:48:04;16.00;99.90
10386;DHT22;34307;51.332;12.334;2023-07-22T06:50:32;15.90;99.90
10386;DHT22;34307;51.332;12.334;2023-07-22T06:53:01;16.10;99.90
10386;DHT22;34307;51.332;12.334;2023-07-22T06:55:30;16.20;99.90
10386;DHT22;34307;51.332;12.334;2023-07-22T06:57:58;16.30;99.90
10386;DHT22;34307;51.332;12.334;2023-07-22T07:00:27;16.30;99.90
10386;DHT22;34307;51.332;12.334;2023-07-22T07:02:57;16.40;99.90
10386;DHT22;34307;51.332;12.334;2023-07-22T07:05:28;16.60;99.90
10386;DHT22;34307;51.332;12.334;2023-07-22T07:07:56;16.70;99.90
10386;DHT22;34307;51.332;12.334;2023-07-22T07:10:25;16.60;99.90
10386;DHT22;34307;51.332;12.334;2023-07-22T07:12:53;16.70;99.90
10386;DHT22;34307;51.332;12.334;2023-07-22T07:15:23;16.80;99.90
10386;DHT22;34307;51.332;12.334;2023-07-22T07:17:51;16.90;99.90
10386;DHT22;34307;51.332;12.334;2023-07-22T07:20:21;17.00;99.90
10386;DHT22;34307;51.332;12.334;2023-07-22T07:22:49;17.20;99.90
10386;DHT22;34307;51.332;12.334;2023-07-22T07:25:18;17.20;99.90
10386;DHT22;34307;51.332;12.334;2023-07-22T07:27:46;17.20;99.90
10386;DHT22;34307;51.332;12.334;2023-07-22T07:30:17;17.40;99.00
10386;DHT22;34307;51.332;12.334;2023-07-22T07:32:45;17.30;95.10
10386;DHT22;34307;51.332;12.334;2023-07-22T07:35:14;17.40;73.00
10386;DHT22;34307;51.332;12.334;2023-07-22T07:37:45;17.40;77.00
10386;DHT22;34307;51.332;12.334;2023-07-22T07:40:13;17.40;88.80
10386;DHT22;34307;51.332;12.334;2023-07-22T07:42:43;17.50;80.50
10386;DHT22;34307;51.332;12.334;2023-07-22T07:45:12;17.60;73.00
10386;DHT22;34307;51.332;12.334;2023-07-22T07:47:41;17.60;60.40
10386;DHT22;34307;51.332;12.334;2023-07-22T07:50:09;17.70;66.70
10386;DHT22;34307;51.332;12.334;2023-07-22T07:52:38;17.80;61.90
10386;DHT22;34307;51.332;12.334;2023-07-22T07:55:08;17.90;58.30
10386;DHT22;34307;51.332;12.334;2023-07-22T07:57:37;17.70;52.50
10386;DHT22;34307;51.332;12.334;2023-07-22T08:00:07;17.70;54.00
10386;DHT22;34307;51.332;12.334;2023-07-22T08:02:37;17.60;53.50
10386;DHT22;34307;51.332;12.334;2023-07-22T08:05:07;17.70;55.10
10386;DHT22;34307;51.332;12.334;2023-07-22T08:07:35;17.70;57.30
10386;DHT22;34307;51.332;12.334;2023-07-22T08:10:05;17.70;55.20
10386;DHT22;34307;51.332;12.334;2023-07-22T08:12:35;17.90;53.80
10386;DHT22;34307;51.332;12.334;2023-07-22T08:15:04;18.00;50.20
10386;DHT22;34307;51.332;12.334;2023-07-22T08:17:33;18.20;48.90
10386;DHT22;34307;51.332;12.334;2023-07-22T08:20:04;18.50;47.00
10386;DHT22;34307;51.332;12.334;2023-07-22T08:22:35;18.70;45.60
10386;DHT22;34307;51.332;12.334;2023-07-22T08:25:05;18.80;46.70
10386;DHT22;34307;51.332;12.334;2023-07-22T08:27:37;19.00;46.50
10386;DHT22;34307;51.332;12.334;2023-07-22T08:30:07;19.40;46.10
10386;DHT22;34307;51.332;12.334;2023-07-22T08:32:35;19.60;44.30
10386;DHT22;34307;51.332;12.334;2023-07-22T08:35:04;19.60;43.40
10386;DHT22;34307;51.332;12.334;2023-07-22T08:37:32;19.60;43.30
10386;DHT22;34307;51.332;12.334;2023-07-22T08:40:01;19.70;44.40
10386;DHT22;34307;51.332;12.334;2023-07-22T08:42:32;19.30;43.90
10386;DHT22;34307;51.332;12.334;2023-07-22T08:45:03;19.60;44.70
10386;DHT22;34307;51.332;12.334;2023-07-22T08:47:34;19.60;40.90
10386;DHT22;34307;51.332;12.334;2023-07-22T08:50:06;19.50;41.90
10386;DHT22;34307;51.332;12.334;2023-07-22T08:52:35;19.80;41.50
10386;DHT22;34307;51.332;12.334;2023-07-22T08:55:04;19.70;39.60
10386;DHT22;34307;51.332;12.334;2023-07-22T08:57:38;19.70;41.90
10386;DHT22;34307;51.332;12.334;2023-07-22T09:00:08;19.80;40.90
10386;DHT22;34307;51.332;12.334;2023-07-22T09:02:38;19.80;35.60
10386;DHT22;34307;51.332;12.334;2023-07-22T09:05:08;19.90;36.10
10386;DHT22;34307;51.332;12.334;2023-07-22T09:07:38;19.90;37.40
10386;DHT22;34307;51.332;12.334;2023-07-22T09:10:10;19.80;41.10
10386;DHT22;34307;51.332;12.334;2023-07-22T09:12:39;20.10;37.60
10386;DHT22;34307;51.332;12.334;2023-07-22T09:15:12;20.10;35.50
10386;DHT22;34307;51.332;12.334;2023-07-22T09:17:40;20.20;33.10
10386;DHT22;34307;51.332;12.334;2023-07-22T09:20:12;20.80;28.90
10386;DHT22;34307;51.332;12.334;2023-07-22T09:22:43;20.70;29.40
10386;DHT22;34307;51.332;12.334;2023-07-22T09:25:18;20.50;29.10
10386;DHT22;34307;51.332;12.334;2023-07-22T09:27:48;20.10;32.00
10386;DHT22;34307;51.332;12.334;2023-07-22T09:30:34;19.70;31.30
10386;DHT22;34307;51.332;12.334;2023-07-22T09:33:04;19.60;32.00
10386;DHT22;34307;51.332;12.334;2023-07-22T09:35:44;19.60;35.90
10386;DHT22;34307;51.332;12.334;2023-07-22T09:38:14;20.10;34.30
10386;DHT22;34307;51.332;12.334;2023-07-22T09:40:44;20.40;29.30
10386;DHT22;34307;51.332;12.334;2023-07-22T09:43:12;20.40;26.50
10386;DHT22;34307;51.332;12.334;2023-07-22T09:45:42;20.50;26.50
10386;DHT22;34307;51.332;12.334;2023-07-22T09:48:15;20.40;24.90
10386;DHT22;34307;51.332;12.334;2023-07-22T09:50:44;20.50;24.60
10386;DHT22;34307;51.332;12.334;2023-07-22T09:53:15;21.00;22.40
10386;DHT22;34307;51.332;12.334;2023-07-22T09:55:45;20.70;20.40
10386;DHT22;34307;51.332;12.334;2023-07-22T09:58:16;20.90;20.80
10386;DHT22;34307;51.332;12.334;2023-07-22T10:00:48;20.90;20.30
10386;DHT22;34307;51.332;12.334;2023-07-22T10:03:18;21.00;21.40
10386;DHT22;34307;51.332;12.334;2023-07-22T10:05:48;21.00;19.70
10386;DHT22;34307;51.332;12.334;2023-07-22T10:08:18;21.00;19.70
10386;DHT22;34307;51.332;12.334;2023-07-22T10:10:48;20.80;21.20
10386;DHT22;34307;51.332;12.334;2023-07-22T10:13:19;21.00;20.20
10386;DHT22;34307;51.332;12.334;2023-07-22T10:15:50;21.20;15.90
10386;DHT22;34307;51.332;12.334;2023-07-22T10:18:18;21.20;15.80
10386;DHT22;34307;51.332;12.334;2023-07-22T10:20:49;21.40;17.10
10386;DHT22;34307;51.332;12.334;2023-07-22T10:23:18;21.30;15.90
10386;DHT22;34307;51.332;12.334;2023-07-22T10:25:46;21.40;13.50
10386;DHT22;34307;51.332;12.334;2023-07-22T10:28:15;21.50;16.10
10386;DHT22;34307;51.332;12.334;2023-07-22T10:30:46;21.80;15.10
10386;DHT22;34307;51.332;12.334;2023-07-22T10:33:19;21.40;11.90
10386;DHT22;34307;51.332;12.334;2023-07-22T10:36:05;21.20;11.00
10386;DHT22;34307;51.332;12.334;2023-07-22T10:38:34;21.40;12.20
10386;DHT22;34307;51.332;12.334;2023-07-22T10:41:12;21.90;11.20
10386;DHT22;34307;51.332;12.334;2023-07-22T10:43:54;21.90;10.60
10386;DHT22;34307;51.332;12.334;2023-07-22T10:46:33;21.80;6.40
10386;DHT22;34307;51.332;12.334;2023-07-22T10:49:13;21.80;9.90
10386;DHT22;34307;51.332;12.334;2023-07-22T10:51:47;21.50;7.20
10386;DHT22;34307;51.332;12.334;2023-07-22T10:54:32;21.60;9.30
10386;DHT22;34307;51.332;12.334;2023-07-22T10:57:04;21.70;6.70
10386;DHT22;34307;51.332;12.334;2023-07-22T10:59:50;21.60;5.20
10386;DHT22;34307;51.332;12.334;2023-07-22T11:02:26;22.00;5.20
10386;DHT22;34307;51.332;12.334;2023-07-22T11:04:57;21.90;2.20
10386;DHT22;34307;51.332;12.334;2023-07-22T11:07:30;21.70;3.80
10386;DHT22;34307;51.332;12.334;2023-07-22T11:10:13;21.70;3.60
10386;DHT22;34307;51.332;12.334;2023-07-22T11:12:42;21.50;3.40
10386;DHT22;34307;51.332;12.334;2023-07-22T11:15:15;21.40;4.10
10386;DHT22;34307;51.332;12.334;2023-07-22T11:17:45;21.60;4.20
10386;DHT22;34307;51.332;12.334;2023-07-22T11:20:14;21.90;4.00
10386;DHT22;34307;51.332;12.334;2023-07-22T11:22:42;22.00;3.00
10386;DHT22;34307;51.332;12.334;2023-07-22T11:25:17;22.20;3.10
10386;DHT22;34307;51.332;12.334;2023-07-22T11:27:46;22.40;1.10
10386;DHT22;34307;51.332;12.334;2023-07-22T11:30:16;22.50;1.40
10386;DHT22;34307;51.332;12.334;2023-07-22T11:32:46;22.20;1.00
10386;DHT22;34307;51.332;12.334;2023-07-22T11:35:33;22.10;1.90
10386;DHT22;34307;51.332;12.334;2023-07-22T11:38:07;21.90;1.00
10386;DHT22;34307;51.332;12.334;2023-07-22T11:40:35;22.00;1.00
10386;DHT22;34307;51.332;12.334;2023-07-22T11:43:03;22.00;1.00
10386;DHT22;34307;51.332;12.334;2023-07-22T11:45:31;22.00;1.00
10386;DHT22;34307;51.332;12.334;2023-07-22T11:47:59;22.20;1.00
10386;DHT22;34307;51.332;12.334;2023-07-22T11:50:36;22.40;1.00
10386;DHT22;34307;51.332;12.334;2023-07-22T11:53:07;22.40;1.00
10386;DHT22;34307;51.332;12.334;2023-07-22T11:55:38;22.20;1.00
10386;DHT22;34307;51.332;12.334;2023-07-22T11:58:08;22.20;1.00
10386;DHT22;34307;51.332;12.334;2023-07-22T12:00:41;22.00;1.00
10386;DHT22;34307;51.332;12.334;2023-07-22T12:03:31;21.80;1.00
10386;DHT22;34307;51.332;12.334;2023-07-22T12:06:02;21.70;1.00
10386;DHT22;34307;51.332;12.334;2023-07-22T12:08:32;21.70;1.00
10386;DHT22;34307;51.332;12.334;2023-07-22T12:11:03;22.00;1.00
10386;DHT22;34307;51.332;12.334;2023-07-22T12:13:40;22.30;1.00
10386;DHT22;34307;51.332;12.334;2023-07-22T12:16:12;22.30;1.00
10386;DHT22;34307;51.332;12.334;2023-07-22T12:18:43;22.10;1.00
10386;DHT22;34307;51.332;12.334;2023-07-22T12:21:14;22.50;1.00
10386;DHT22;34307;51.332;12.334;2023-07-22T12:23:43;22.50;1.00
10386;DHT22;34307;51.332;12.334;2023-07-22T12:26:11;22.70;1.00
10386;DHT22;34307;51.332;12.334;2023-07-22T12:28:41;22.60;1.00
10386;DHT22;34307;51.332;12.334;2023-07-22T12:31:10;22.40;1.00
10386;DHT22;34307;51.332;12.334;2023-07-22T12:33:38;22.40;1.00
10386;DHT22;34307;51.332;12.334;2023-07-22T12:36:09;22.60;1.00
10386;DHT22;34307;51.332;12.334;2023-07-22T12:38:40;22.40;1.00
10386;DHT22;34307;51.332;12.334;2023-07-22T12:41:10;22.50;1.00
10386;DHT22;34307;51.332;12.334;2023-07-22T12:43:38;22.90;1.00
10386;DHT22;34307;51.332;12.334;2023-07-22T12:46:06;22.80;1.00
10386;DHT22;34307;51.332;12.334;2023-07-22T12:48:36;22.70;1.00
10386;DHT22;34307;51.332;12.334;2023-07-22T12:51:05;22.80;1.00
10386;DHT22;34307;51.332;12.334;2023-07-22T12:53:36;22.40;1.00
10386;DHT22;34307;51.332;12.334;2023-07-22T12:56:06;22.50;1.00
10386;DHT22;34307;51.332;12.334;2023-07-22T12:58:34;23.00;1.00
10386;DHT22;34307;51.332;12.334;2023-07-22T13:01:03;23.30;1.00
10386;DHT22;34307;51.332;12.334;2023-07-22T13:03:31;23.50;1.00
10386;DHT22;34307;51.332;12.334;2023-07-22T13:06:00;23.30;1.00
10386;DHT22;34307;51.332;12.334;2023-07-22T13:08:32;23.30;1.00
10386;DHT22;34307;51.332;12.334;2023-07-22T13:11:00;23.10;1.00
10386;DHT22;34307;51.332;12.334;2023-07-22T13:13:31;23.20;1.00
10386;DHT22;34307;51.332;12.334;2023-07-22T13:16:01;23.20;1.00
10386;DHT22;34307;51.332;12.334;2023-07-22T13:18:30;23.50;1.00
10386;DHT22;34307;51.332;12.334;2023-07-22T13:20:58;23.70;1.00
10386;DHT22;34307;51.332;12.334;2023-07-22T13:23:27;23.80;1.00
10386;DHT22;34307;51.332;12.334;2023-07-22T13:25:55;23.90;1.00
10386;DHT22;34307;51.332;12.334;2023-07-22T13:28:23;23.70;1.00
10386;DHT22;34307;51.332;12.334;2023-07-22T13:30:56;23.60;1.00
10386;DHT22;34307;51.332;12.334;2023-07-22T13:33:24;24.20;1.00
10386;DHT22;34307;51.332;12.334;2023-07-22T13:35:52;24.70;1.00
10386;DHT22;34307;51.332;12.334;2023-07-22T13:38:23;24.70;1.00
10386;DHT22;34307;51.332;12.334;2023-07-22T13:40:52;25.00;1.00
10386;DHT22;34307;51.332;12.334;2023-07-22T13:43:20;25.30;1.00
10386;DHT22;34307;51.332;12.334;2023-07-22T13:45:49;25.40;1.00
10386;DHT22;34307;51.332;12.334;2023-07-22T13:48:18;25.60;1.00
10386;DHT22;34307;51.332;12.334;2023-07-22T13:50:47;25.20;1.00
10386;DHT22;34307;51.332;12.334;2023-07-22T13:53:16;25.50;1.00
10386;DHT22;34307;51.332;12.334;2023-07-22T13:55:44;25.60;1.00
10386;DHT22;34307;51.332;12.334;2023-07-22T13:58:17;25.50;1.00
10386;DHT22;34307;51.332;12.334;2023-07-22T14:00:47;25.00;1.00
10386;DHT22;34307;51.332;12.334;2023-07-22T14:03:19;25.00;1.00
10386;DHT22;34307;51.332;12.334;2023-07-22T14:05:51;25.60;1.00
10386;DHT22;34307;51.332;12.334;2023-07-22T14:08:19;26.30;1.00
10386;DHT22;34307;51.332;12.334;2023-07-22T14:10:48;27.10;1.00
10386;DHT22;34307;51.332;12.334;2023-07-22T14:13:17;26.40;1.00
10386;DHT22;34307;51.332;12.334;2023-07-22T14:15:46;26.50;1.00
10386;DHT22;34307;51.332;12.334;2023-07-22T14:18:19;26.10;1.00
10386;DHT22;34307;51.332;12.334;2023-07-22T14:20:47;26.40;1.00
10386;DHT22;34307;51.332;12.334;2023-07-22T14:23:15;26.50;1.00
10386;DHT22;34307;51.332;12.334;2023-07-22T14:25:45;25.80;1.00
10386;DHT22;34307;51.332;12.334;2023-07-22T14:28:16;25.60;1.00
10386;DHT22;34307;51.332;12.334;2023-07-22T14:30:44;25.00;1.00
10386;DHT22;34307;51.332;12.334;2023-07-22T14:33:12;24.50;1.00
10386;DHT22;34307;51.332;12.334;2023-07-22T14:35:42;24.40;1.00
10386;DHT22;34307;51.332;12.334;2023-07-22T14:38:10;24.30;1.00
10386;DHT22;34307;51.332;12.334;2023-07-22T14:40:38;25.50;1.00
10386;DHT22;34307;51.332;12.334;2023-07-22T14:43:06;25.90;1.00
10386;DHT22;34307;51.332;12.334;2023-07-22T14:45:35;26.20;1.00
10386;DHT22;34307;51.332;12.334;2023-07-22T14:48:05;26.80;1.00
10386;DHT22;34307;51.332;12.334;2023-07-22T14:50:36;27.40;1.00
10386;DHT22;34307;51.332;12.334;2023-07-22T14:53:06;27.50;1.00
10386;DHT22;34307;51.332;12.334;2023-07-22T14:55:34;27.20;1.00
10386;DHT22;34307;51.332;12.334;2023-07-22T14:58:03;27.50;1.00
10386;DHT22;34307;51.332;12.334;2023-07-22T15:00:32;27.70;1.00
10386;DHT22;34307;51.332;12.334;2023-07-22T15:03:04;27.90;1.00
10386;DHT22;34307;51.332;12.334;2023-07-22T15:05:34;27.70;1.00
10386;DHT22;34307;51.332;12.334;2023-07-22T15:08:06;27.80;1.00
10386;DHT22;34307;51.332;12.334;2023-07-22T15:10:36;27.60;1.00
10386;DHT22;34307;51.332;12.334;2023-07-22T15:13:05;27.70;1.00
10386;DHT22;34307;51.332;12.334;2023-07-22T15:15:34;27.20;1.00
10386;DHT22;34307;51.332;12.334;2023-07-22T15:18:03;26.70;1.00
10386;DHT22;34307;51.332;12.334;2023-07-22T15:20:32;26.30;1.00
10386;DHT22;34307;51.332;12.334;2023-07-22T15:23:00;26.40;1.00
10386;DHT22;34307;51.332;12.334;2023-07-22T15:25:32;27.50;1.00
10386;DHT22;34307;51.332;12.334;2023-07-22T15:28:03;28.90;1.00
10386;DHT22;34307;51.332;12.334;2023-07-22T15:30:31;29.10;1.00
10386;DHT22;34307;51.332;12.334;2023-07-22T15:32:59;28.90;1.00
10386;DHT22;34307;51.332;12.334;2023-07-22T15:35:29;29.00;1.00
10386;DHT22;34307;51.332;12.334;2023-07-22T15:37:58;28.30;1.00